Time;durP1;ratioP1;P1;durP2;ratioP2;P2;SDS_P1;SDS_P2;PMS_P1;PMS_P2;Temp;Humidity;BMP_temperature;BMP_pressure;BME280_temperature;BME280_humidity;BME280_pressure;Samples;Min_cycle;Max_cycle;Signal;HPM_P1;HPM_P2
2021/12/30 00:00:29;;;;;;;63.15;12.48;;;;;;;;;;5072412;27;96854;-78
2021/12/30 00:02:55;;;;;;;56.92;13.13;;;;;;;;;;5072335;27;97482;-80
2021/12/30 00:05:22;;;;;;;55.63;12.75;;;;;;;;;;5071964;27;95556;-78
2021/12/30 00:07:48;;;;;;;67.78;12.98;;;;;;;;;;5071257;27;96236;-76
2021/12/30 00:10:15;;;;;;;63.55;11.77;;;;;;;;;;5071798;27;97633;-81
2021/12/30 00:12:41;;;;;;;61.30;11.38;;;;;;;;;;5071839;27;95663;-76
2021/12/30 00:15:08;;;;;;;73.65;10.63;;;;;;;;;;5075521;27;96906;-80
2021/12/30 00:17:35;;;;;;;70.80;12.05;;;;;;;;;;5071651;27;95365;-80
2021/12/30 00:20:03;;;;;;;78.10;12.13;;;;;;;;;;5072080;27;96753;-81
2021/12/30 00:22:30;;;;;;;70.60;12.90;;;;;;;;;;5071769;27;97715;-79
2021/12/30 00:24:56;;;;;;;68.00;12.38;;;;;;;;;;5072328;27;95415;-80
2021/12/30 00:27:22;;;;;;;62.33;10.95;;;;;;;;;;5072000;27;97216;-79
2021/12/30 00:29:49;;;;;;;68.80;11.25;;;;;;;;;;5071789;27;96046;-78
2021/12/30 00:32:15;;;;;;;64.38;10.73;;;;;;;;;;5071251;27;95679;-77
2021/12/30 00:34:41;;;;;;;61.85;11.98;;;;;;;;;;5072376;27;96700;-77
2021/12/30 00:37:08;;;;;;;62.53;10.27;;;;;;;;;;5074706;27;98232;-80
2021/12/30 00:39:34;;;;;;;66.60;10.75;;;;;;;;;;5071444;27;97028;-79
2021/12/30 00:42:01;;;;;;;66.20;11.38;;;;;;;;;;5071641;27;97727;-80
2021/12/30 00:44:27;;;;;;;83.78;13.32;;;;;;;;;;5071826;27;95271;-80
2021/12/30 00:46:53;;;;;;;75.35;11.05;;;;;;;;;;5071585;27;96831;-79
2021/12/30 00:49:22;;;;;;;64.72;10.75;;;;;;;;;;5071444;27;97967;-79
2021/12/30 00:51:49;;;;;;;63.75;11.48;;;;;;;;;;5070280;27;95772;-80
2021/12/30 00:54:15;;;;;;;65.95;12.20;;;;;;;;;;5071489;27;96612;-78
2021/12/30 00:56:42;;;;;;;71.10;12.55;;;;;;;;;;5071614;27;96171;-80
2021/12/30 00:59:08;;;;;;;78.97;13.45;;;;;;;;;;5074854;27;95777;-78
2021/12/30 01:01:34;;;;;;;65.85;11.45;;;;;;;;;;5070788;27;97416;-79
2021/12/30 01:04:01;;;;;;;87.70;13.43;;;;;;;;;;5071901;27;95180;-78
2021/12/30 01:06:28;;;;;;;70.03;13.70;;;;;;;;;;5071167;27;97123;-78
2021/12/30 01:08:55;;;;;;;85.45;14.93;;;;;;;;;;5070926;27;96237;-78
2021/12/30 01:11:23;;;;;;;84.75;16.45;;;;;;;;;;5071287;27;95374;-79
2021/12/30 01:13:58;;;;;;;66.68;14.48;;;;;;;;;;5071075;27;96840;-78
2021/12/30 01:16:29;;;;;;;84.43;16.13;;;;;;;;;;5071302;27;97116;-79
2021/12/30 01:19:00;;;;;;;73.22;14.45;;;;;;;;;;5071357;27;95952;-76
2021/12/30 01:21:29;;;;;;;72.82;15.43;;;;;;;;;;5073996;27;96920;-76
2021/12/30 01:23:57;;;;;;;80.70;17.23;;;;;;;;;;5071116;27;95104;-79
2021/12/30 01:26:23;;;;;;;77.38;15.88;;;;;;;;;;5070796;27;96887;-79
2021/12/30 01:28:51;;;;;;;68.63;16.02;;;;;;;;;;5070167;27;97725;-79
2021/12/30 01:31:18;;;;;;;79.00;16.75;;;;;;;;;;5070889;27;95425;-78
2021/12/30 01:33:47;;;;;;;80.25;17.30;;;;;;;;;;5070650;27;96745;-80
2021/12/30 01:36:14;;;;;;;70.72;16.65;;;;;;;;;;5070199;27;97387;-76
2021/12/30 01:38:41;;;;;;;73.50;17.92;;;;;;;;;;5070942;27;95405;-80
2021/12/30 01:41:08;;;;;;;81.15;16.50;;;;;;;;;;5069018;27;97250;-78
2021/12/30 01:43:36;;;;;;;71.05;18.55;;;;;;;;;;5073336;27;98226;-79
2021/12/30 01:46:06;;;;;;;75.85;17.42;;;;;;;;;;5071284;27;96881;-78
2021/12/30 01:48:32;;;;;;;81.35;19.02;;;;;;;;;;5071264;27;97413;-74
2021/12/30 01:50:59;;;;;;;86.40;18.88;;;;;;;;;;5070341;27;95289;-77
2021/12/30 01:53:25;;;;;;;70.78;16.83;;;;;;;;;;5069902;27;97441;-79
2021/12/30 01:55:51;;;;;;;76.15;16.88;;;;;;;;;;5070472;27;97532;-79
2021/12/30 01:58:18;;;;;;;79.40;17.42;;;;;;;;;;5069327;27;95556;-78
2021/12/30 02:00:45;;;;;;;79.18;19.13;;;;;;;;;;5070928;27;95734;-78
2021/12/30 02:03:12;;;;;;;79.75;18.25;;;;;;;;;;5069795;27;97590;-78
2021/12/30 02:05:39;;;;;;;70.30;18.00;;;;;;;;;;5073578;27;95130;-78
2021/12/30 02:08:06;;;;;;;71.47;18.65;;;;;;;;;;5070022;27;97483;-76
2021/12/30 02:10:33;;;;;;;85.18;20.27;;;;;;;;;;5069770;27;95542;-78
2021/12/30 02:13:00;;;;;;;80.68;20.52;;;;;;;;;;5070347;27;96944;-79
2021/12/30 02:15:27;;;;;;;97.80;22.45;;;;;;;;;;5068615;27;97355;-77
2021/12/30 02:17:54;;;;;;;105.30;22.25;;;;;;;;;;5070249;27;95400;-79
2021/12/30 02:20:36;;;;;;;104.40;21.85;;;;;;;;;;5069589;27;95550;-79
2021/12/30 02:23:03;;;;;;;86.90;23.63;;;;;;;;;;5068630;27;96997;-78
2021/12/30 02:25:29;;;;;;;86.40;21.77;;;;;;;;;;5072784;27;95687;-79
2021/12/30 02:27:55;;;;;;;83.65;21.88;;;;;;;;;;5068995;27;97404;-79
2021/12/30 02:30:22;;;;;;;90.10;23.25;;;;;;;;;;5070351;27;95736;-79
2021/12/30 02:32:48;;;;;;;103.07;24.75;;;;;;;;;;5069741;27;95701;-77
2021/12/30 02:35:14;;;;;;;97.43;24.90;;;;;;;;;;5068768;27;97321;-78
2021/12/30 02:37:41;;;;;;;112.40;26.88;;;;;;;;;;5070240;27;95230;-75
2021/12/30 02:40:08;;;;;;;82.85;24.38;;;;;;;;;;5069334;27;97004;-80
2021/12/30 02:42:34;;;;;;;104.15;25.42;;;;;;;;;;5069546;27;97728;-79
2021/12/30 02:45:00;;;;;;;98.57;26.17;;;;;;;;;;5067897;27;95388;-79
2021/12/30 02:47:31;;;;;;;84.50;24.23;;;;;;;;;;5073065;27;95842;-80
2021/12/30 02:49:58;;;;;;;84.15;23.08;;;;;;;;;;5070667;27;95156;-77
2021/12/30 02:52:24;;;;;;;83.50;22.40;;;;;;;;;;5069029;27;96790;-76
2021/12/30 02:54:50;;;;;;;78.43;21.70;;;;;;;;;;5068337;27;97402;-77
2021/12/30 02:57:17;;;;;;;75.53;21.20;;;;;;;;;;5069198;27;95642;-78
2021/12/30 02:59:43;;;;;;;65.30;21.30;;;;;;;;;;5069720;27;96958;-80
2021/12/30 03:02:09;;;;;;;74.38;22.20;;;;;;;;;;5068915;27;97346;-79
2021/12/30 03:04:37;;;;;;;64.20;20.73;;;;;;;;;;5070254;27;95234;-79
2021/12/30 03:07:03;;;;;;;73.45;20.25;;;;;;;;;;5069460;27;97032;-78
2021/12/30 03:09:29;;;;;;;62.38;19.80;;;;;;;;;;5070928;27;97160;-81
2021/12/30 03:11:56;;;;;;;62.92;20.50;;;;;;;;;;5069633;27;96644;-76
2021/12/30 03:14:25;;;;;;;62.05;19.45;;;;;;;;;;5068764;27;97387;-78
2021/12/30 03:16:51;;;;;;;51.95;18.35;;;;;;;;;;5069493;27;96018;-78
2021/12/30 03:19:18;;;;;;;58.47;19.73;;;;;;;;;;5069572;27;97242;-77
2021/12/30 03:21:45;;;;;;;54.83;19.08;;;;;;;;;;5069095;27;97313;-77
2021/12/30 03:24:11;;;;;;;49.67;18.98;;;;;;;;;;5067753;27;95662;-79
2021/12/30 03:26:37;;;;;;;52.00;19.63;;;;;;;;;;5069000;27;96927;-78
2021/12/30 03:29:04;;;;;;;50.42;19.65;;;;;;;;;;5068944;27;97647;-80
2021/12/30 03:31:31;;;;;;;57.55;19.23;;;;;;;;;;5072664;27;95370;-79
2021/12/30 03:33:58;;;;;;;62.40;21.75;;;;;;;;;;5068890;27;97304;-80
2021/12/30 03:36:25;;;;;;;70.57;22.90;;;;;;;;;;5067614;27;95254;-80
2021/12/30 03:38:53;;;;;;;70.53;21.42;;;;;;;;;;5068860;27;97180;-80
2021/12/30 03:41:21;;;;;;;71.18;23.17;;;;;;;;;;5068152;27;97198;-79
2021/12/30 03:43:48;;;;;;;61.83;20.77;;;;;;;;;;5069097;27;95379;-81
2021/12/30 03:46:14;;;;;;;59.53;19.42;;;;;;;;;;5069173;27;95882;-79
2021/12/30 03:48:43;;;;;;;60.97;21.15;;;;;;;;;;5068627;27;97233;-79
2021/12/30 03:51:20;;;;;;;61.42;21.02;;;;;;;;;;5068733;27;95972;-76
2021/12/30 03:53:49;;;;;;;65.40;22.58;;;;;;;;;;5068645;27;97137;-78
2021/12/30 03:56:16;;;;;;;55.67;19.38;;;;;;;;;;5067178;27;95735;-80
2021/12/30 03:58:44;;;;;;;53.33;20.08;;;;;;;;;;5069433;27;96789;-80
2021/12/30 04:01:14;;;;;;;47.53;17.30;;;;;;;;;;5068730;27;97236;-79
2021/12/30 04:03:41;;;;;;;49.17;18.90;;;;;;;;;;5067723;27;95960;-79
2021/12/30 04:06:07;;;;;;;38.50;16.70;;;;;;;;;;5068955;27;97080;-79
2021/12/30 04:08:34;;;;;;;34.53;15.45;;;;;;;;;;5068876;27;97310;-79
2021/12/30 04:11:00;;;;;;;29.15;15.90;;;;;;;;;;5067422;27;95249;-78
2021/12/30 04:13:27;;;;;;;41.55;17.05;;;;;;;;;;5067995;27;96872;-77
2021/12/30 04:15:53;;;;;;;34.80;16.75;;;;;;;;;;5071636;27;95082;-77
2021/12/30 04:18:19;;;;;;;34.92;15.95;;;;;;;;;;5068061;27;97029;-79
2021/12/30 04:20:46;;;;;;;41.00;18.25;;;;;;;;;;5068499;27;97996;-78
2021/12/30 04:23:13;;;;;;;37.63;17.25;;;;;;;;;;5068113;27;95799;-81
2021/12/30 04:25:39;;;;;;;44.97;18.50;;;;;;;;;;5068795;27;96952;-82
2021/12/30 04:28:05;;;;;;;41.13;16.70;;;;;;;;;;5068584;27;97719;-77
2021/12/30 04:30:32;;;;;;;35.10;16.50;;;;;;;;;;5068827;27;95726;-80
2021/12/30 04:32:58;;;;;;;37.40;15.15;;;;;;;;;;5068185;27;97089;-80
2021/12/30 04:35:29;;;;;;;30.95;13.30;;;;;;;;;;5071032;27;96152;-80
2021/12/30 04:37:55;;;;;;;25.77;11.55;;;;;;;;;;5068487;27;96980;-77
2021/12/30 04:40:22;;;;;;;27.63;12.77;;;;;;;;;;5066905;27;97488;-79
2021/12/30 04:42:48;;;;;;;26.25;11.32;;;;;;;;;;5068070;27;95770;-79
2021/12/30 04:45:14;;;;;;;17.60;10.25;;;;;;;;;;5071532;27;96210;-78
2021/12/30 04:47:41;;;;;;;21.95;10.40;;;;;;;;;;5071852;27;97794;-79
2021/12/30 04:50:09;;;;;;;15.85;8.68;;;;;;;;;;5071755;27;95862;-79
2021/12/30 04:52:36;;;;;;;17.73;8.48;;;;;;;;;;5071208;27;97200;-80
2021/12/30 04:55:03;;;;;;;14.05;7.30;;;;;;;;;;5072003;27;97188;-80
2021/12/30 04:57:29;;;;;;;12.05;6.13;;;;;;;;;;5075016;27;95354;-79
2021/12/30 04:59:55;;;;;;;15.98;6.72;;;;;;;;;;5071245;27;97606;-78
2021/12/30 05:02:25;;;;;;;13.50;5.95;;;;;;;;;;5071763;27;95363;-80
2021/12/30 05:04:52;;;;;;;8.40;4.70;;;;;;;;;;5071976;27;96729;-79
2021/12/30 05:07:18;;;;;;;15.50;5.68;;;;;;;;;;5071103;27;97108;-78
2021/12/30 05:09:44;;;;;;;19.63;5.97;;;;;;;;;;5072081;27;95386;-78
2021/12/30 05:12:11;;;;;;;16.50;5.32;;;;;;;;;;5071656;27;97123;-78
2021/12/30 05:14:37;;;;;;;12.60;5.03;;;;;;;;;;5070512;27;97650;-83
2021/12/30 05:17:03;;;;;;;15.38;4.72;;;;;;;;;;5071263;27;95733;-82
2021/12/30 05:19:30;;;;;;;9.02;4.43;;;;;;;;;;5074472;27;96821;-82
2021/12/30 05:21:57;;;;;;;13.13;4.97;;;;;;;;;;5071466;27;95951;-80
2021/12/30 05:24:24;;;;;;;15.82;5.53;;;;;;;;;;5071928;27;95942;-81
2021/12/30 05:26:50;;;;;;;25.08;6.43;;;;;;;;;;5071361;27;97111;-82
2021/12/30 05:29:16;;;;;;;26.17;8.10;;;;;;;;;;5071155;27;95349;-80
2021/12/30 05:31:43;;;;;;;38.05;9.05;;;;;;;;;;5070699;27;97107;-81
2021/12/30 05:34:09;;;;;;;40.42;11.23;;;;;;;;;;5070243;27;97878;-78
2021/12/30 05:36:36;;;;;;;40.70;11.32;;;;;;;;;;5070468;27;95378;-80
2021/12/30 05:39:02;;;;;;;40.88;10.23;;;;;;;;;;5069959;27;97149;-82
2021/12/30 05:41:29;;;;;;;42.38;10.02;;;;;;;;;;5071930;27;97380;-78
2021/12/30 05:43:56;;;;;;;36.03;9.68;;;;;;;;;;5070364;27;97157;-78
2021/12/30 05:46:22;;;;;;;29.42;9.07;;;;;;;;;;5067070;27;97696;-80
2021/12/30 05:48:49;;;;;;;38.20;10.65;;;;;;;;;;5068407;27;95232;-79
2021/12/30 05:51:16;;;;;;;37.05;9.05;;;;;;;;;;5066351;27;97233;-75
2021/12/30 05:53:44;;;;;;;34.72;9.38;;;;;;;;;;5071021;27;95758;-77
2021/12/30 05:56:11;;;;;;;30.75;9.27;;;;;;;;;;5070591;27;95295;-76
2021/12/30 05:58:37;;;;;;;38.08;10.73;;;;;;;;;;5070946;27;97111;-77
2021/12/30 06:01:03;;;;;;;35.50;10.55;;;;;;;;;;5071063;27;97245;-79
2021/12/30 06:03:30;;;;;;;32.35;10.43;;;;;;;;;;5057103;27;96122;-79
2021/12/30 06:05:57;;;;;;;48.13;11.55;;;;;;;;;;5050143;27;97338;-77
2021/12/30 06:08:23;;;;;;;38.63;12.63;;;;;;;;;;5064636;27;96157;-80
2021/12/30 06:10:49;;;;;;;39.08;13.00;;;;;;;;;;5068882;27;96733;-80
2021/12/30 06:13:16;;;;;;;39.10;12.40;;;;;;;;;;5069560;27;97373;-80
2021/12/30 06:15:42;;;;;;;41.40;14.38;;;;;;;;;;5070486;27;95588;-80
2021/12/30 06:18:08;;;;;;;40.30;12.38;;;;;;;;;;5069877;27;97391;-79
2021/12/30 06:20:35;;;;;;;33.13;12.55;;;;;;;;;;5070321;27;96854;-79
2021/12/30 06:23:01;;;;;;;29.67;10.50;;;;;;;;;;5072500;27;95461;-76
2021/12/30 06:25:28;;;;;;;19.42;9.02;;;;;;;;;;5049817;27;97491;-75
2021/12/30 06:27:55;;;;;;;20.60;7.80;;;;;;;;;;5067290;27;95936;-76
2021/12/30 06:30:22;;;;;;;19.35;7.82;;;;;;;;;;5069854;27;96864;-78
2021/12/30 06:32:48;;;;;;;16.70;6.78;;;;;;;;;;5070262;27;98930;-76
2021/12/30 06:35:15;;;;;;;18.15;6.22;;;;;;;;;;5069993;27;96053;-79
2021/12/30 06:37:41;;;;;;;12.80;5.45;;;;;;;;;;5069637;27;96529;-78
2021/12/30 06:40:09;;;;;;;15.52;5.68;;;;;;;;;;5070292;27;97618;-78
2021/12/30 06:42:36;;;;;;;16.48;5.55;;;;;;;;;;5070092;27;95457;-78
2021/12/30 06:45:03;;;;;;;12.02;4.43;;;;;;;;;;5071638;27;96797;-78
2021/12/30 06:47:29;;;;;;;12.23;4.90;;;;;;;;;;5069967;27;95893;-78
2021/12/30 06:50:01;;;;;;;10.98;5.25;;;;;;;;;;5070637;27;97341;-79
2021/12/30 06:52:28;;;;;;;11.18;4.93;;;;;;;;;;5068882;27;97397;-77
2021/12/30 06:54:54;;;;;;;11.93;4.65;;;;;;;;;;5067988;27;95284;-77
2021/12/30 06:57:21;;;;;;;14.90;4.68;;;;;;;;;;5069829;27;96872;-79
2021/12/30 06:59:47;;;;;;;13.85;5.00;;;;;;;;;;5068089;27;98233;-75
2021/12/30 07:02:14;;;;;;;17.15;5.55;;;;;;;;;;5069678;27;95394;-76
2021/12/30 07:04:41;;;;;;;16.48;5.75;;;;;;;;;;5069832;27;96105;-76
2021/12/30 07:07:08;;;;;;;17.23;5.97;;;;;;;;;;5071528;27;98125;-77
2021/12/30 07:09:34;;;;;;;14.43;5.63;;;;;;;;;;5068822;27;96921;-81
2021/12/30 07:12:01;;;;;;;16.63;5.40;;;;;;;;;;5069916;27;97594;-78
2021/12/30 07:14:29;;;;;;;14.82;6.50;;;;;;;;;;5068037;27;96082;-77
2021/12/30 07:16:55;;;;;;;12.85;4.75;;;;;;;;;;5067913;27;96800;-77
2021/12/30 07:19:21;;;;;;;13.55;5.43;;;;;;;;;;5069103;27;95851;-77
2021/12/30 07:21:50;;;;;;;16.73;6.25;;;;;;;;;;5070059;27;95757;-78
2021/12/30 07:24:17;;;;;;;17.83;5.70;;;;;;;;;;5069771;27;96931;-78
2021/12/30 07:26:43;;;;;;;12.88;5.53;;;;;;;;;;5067521;27;97430;-78
2021/12/30 07:29:10;;;;;;;15.57;5.38;;;;;;;;;;5073540;27;95319;-77
2021/12/30 07:31:38;;;;;;;13.35;4.93;;;;;;;;;;5069920;27;97701;-77
2021/12/30 07:34:05;;;;;;;11.73;4.65;;;;;;;;;;5069933;27;95970;-76
2021/12/30 07:36:31;;;;;;;12.60;4.95;;;;;;;;;;5069524;27;96810;-76
2021/12/30 07:38:58;;;;;;;13.95;4.82;;;;;;;;;;5067764;27;97631;-77
2021/12/30 07:41:24;;;;;;;10.93;5.20;;;;;;;;;;5070067;27;95278;-79
2021/12/30 07:43:51;;;;;;;19.27;6.60;;;;;;;;;;5069577;27;97310;-80
2021/12/30 07:46:18;;;;;;;15.75;8.40;;;;;;;;;;5067897;27;97300;-76
2021/12/30 07:48:44;;;;;;;21.25;8.85;;;;;;;;;;5068468;27;96077;-79
2021/12/30 07:51:10;;;;;;;22.05;9.73;;;;;;;;;;5071685;27;97328;-76
2021/12/30 07:53:37;;;;;;;19.65;9.73;;;;;;;;;;5070526;27;95658;-77
2021/12/30 07:56:04;;;;;;;30.10;11.75;;;;;;;;;;5068102;27;97146;-77
2021/12/30 07:58:30;;;;;;;26.90;11.70;;;;;;;;;;5067668;27;97333;-79
2021/12/30 08:00:57;;;;;;;30.30;11.57;;;;;;;;;;5049163;27;95358;-76
2021/12/30 08:03:24;;;;;;;31.45;12.23;;;;;;;;;;5064110;27;96466;-77
2021/12/30 15:43:33;;;;;;;17.83;6.72;;;;;;;;;;5045997;27;95777;-76
2021/12/30 15:45:59;;;;;;;18.15;9.93;;;;;;;;;;5043491;27;97345;-75
2021/12/30 15:48:28;;;;;;;17.42;6.13;;;;;;;;;;5031106;27;95186;-77
2021/12/30 15:50:55;;;;;;;14.27;5.57;;;;;;;;;;5025248;28;96769;-77
2021/12/30 15:53:21;;;;;;;23.70;5.90;;;;;;;;;;5032460;27;97387;-74
2021/12/30 15:55:48;;;;;;;14.13;4.95;;;;;;;;;;5045642;27;95373;-79
2021/12/30 15:58:23;;;;;;;12.40;5.20;;;;;;;;;;5031094;27;96578;-77
2021/12/30 16:00:49;;;;;;;16.13;5.57;;;;;;;;;;5029034;27;97280;-78
2021/12/30 16:03:16;;;;;;;15.52;5.43;;;;;;;;;;5043497;27;95391;-76
2021/12/30 16:05:42;;;;;;;12.23;5.50;;;;;;;;;;5024741;28;97129;-76
2021/12/30 16:08:10;;;;;;;11.35;4.88;;;;;;;;;;5024154;27;95361;-75
2021/12/30 16:10:36;;;;;;;9.57;4.95;;;;;;;;;;5024698;27;96557;-76
2021/12/30 16:13:03;;;;;;;12.40;4.95;;;;;;;;;;5023602;28;97517;-76
2021/12/30 16:15:30;;;;;;;8.60;4.88;;;;;;;;;;5023157;27;95763;-75
2021/12/30 16:17:56;;;;;;;9.45;4.57;;;;;;;;;;5021698;27;97068;-77
2021/12/30 16:20:22;;;;;;;12.02;4.13;;;;;;;;;;5023365;27;97360;-78
2021/12/30 16:22:49;;;;;;;10.35;4.13;;;;;;;;;;5019160;28;95391;-76
2021/12/30 16:25:18;;;;;;;14.75;3.95;;;;;;;;;;5016977;28;97547;-75
2021/12/30 16:27:45;;;;;;;16.55;4.07;;;;;;;;;;5037434;27;95566;-76
2021/12/30 16:30:14;;;;;;;9.32;4.05;;;;;;;;;;5023899;27;97003;-76
2021/12/30 16:32:42;;;;;;;8.85;3.72;;;;;;;;;;5040643;27;97392;-76
2021/12/30 16:35:09;;;;;;;16.67;4.65;;;;;;;;;;5024783;27;95666;-76
2021/12/30 16:37:35;;;;;;;14.13;4.70;;;;;;;;;;5024253;28;96847;-76
2021/12/30 16:40:02;;;;;;;17.88;5.63;;;;;;;;;;5023911;28;97673;-75
2021/12/30 16:42:29;;;;;;;15.23;4.70;;;;;;;;;;5034318;27;95215;-78
2021/12/30 16:44:55;;;;;;;13.52;5.25;;;;;;;;;;5044755;27;96595;-76
2021/12/30 16:47:23;;;;;;;15.15;5.07;;;;;;;;;;5046523;27;97803;-77
2021/12/30 16:49:50;;;;;;;16.58;5.47;;;;;;;;;;5044191;27;96719;-73
2021/12/30 16:52:17;;;;;;;16.85;5.63;;;;;;;;;;5043506;27;97357;-76
2021/12/30 16:54:43;;;;;;;16.30;5.75;;;;;;;;;;5031658;27;95265;-77
2021/12/30 16:57:12;;;;;;;16.77;5.80;;;;;;;;;;5030064;28;96894;-75
2021/12/30 16:59:39;;;;;;;19.92;5.78;;;;;;;;;;5030246;27;98481;-76
2021/12/30 17:02:05;;;;;;;21.58;6.50;;;;;;;;;;5030634;27;95374;-76
2021/12/30 17:04:32;;;;;;;15.77;6.10;;;;;;;;;;5043062;27;96750;-75
2021/12/30 17:07:04;;;;;;;16.73;6.40;;;;;;;;;;5041782;27;97347;-74
2021/12/30 17:09:34;;;;;;;15.30;6.03;;;;;;;;;;5033247;27;95271;-74
2021/12/30 17:12:01;;;;;;;18.42;6.60;;;;;;;;;;5029097;28;96919;-76
2021/12/30 17:14:27;;;;;;;17.95;6.72;;;;;;;;;;5031349;27;95660;-75
2021/12/30 17:16:53;;;;;;;16.98;6.57;;;;;;;;;;5046599;27;96889;-75
2021/12/30 17:19:19;;;;;;;20.85;6.28;;;;;;;;;;5038143;27;97346;-77
2021/12/30 17:21:47;;;;;;;18.83;6.55;;;;;;;;;;5029034;27;95383;-78
2021/12/30 17:24:14;;;;;;;19.52;6.55;;;;;;;;;;5030001;28;96807;-76
2021/12/30 17:26:41;;;;;;;17.55;7.13;;;;;;;;;;5029814;28;97376;-77
2021/12/30 17:29:07;;;;;;;17.70;6.10;;;;;;;;;;5031389;27;95727;-76
2021/12/30 17:31:34;;;;;;;16.67;6.22;;;;;;;;;;5031079;28;95799;-75
2021/12/30 17:34:01;;;;;;;21.05;6.00;;;;;;;;;;5030227;28;95575;-77
2021/12/30 17:36:27;;;;;;;17.15;5.63;;;;;;;;;;5029800;28;96937;-75
2021/12/30 17:38:54;;;;;;;18.20;5.63;;;;;;;;;;5030017;28;97316;-76
2021/12/30 17:41:20;;;;;;;19.33;5.03;;;;;;;;;;5029145;28;96824;-76
2021/12/30 17:43:47;;;;;;;20.13;5.38;;;;;;;;;;5030951;27;96738;-77
2021/12/30 17:46:13;;;;;;;18.58;6.15;;;;;;;;;;5019096;28;97043;-77
2021/12/30 17:48:39;;;;;;;13.23;5.78;;;;;;;;;;5045791;27;95353;-79
2021/12/30 17:51:07;;;;;;;17.88;5.70;;;;;;;;;;5039313;27;96815;-77
2021/12/30 17:53:33;;;;;;;18.42;5.82;;;;;;;;;;5031685;28;95759;-78
2021/12/30 17:56:01;;;;;;;14.05;5.00;;;;;;;;;;5029155;27;96831;-75
2021/12/30 17:58:27;;;;;;;17.80;5.45;;;;;;;;;;5028408;27;95853;-78
2021/12/30 18:00:53;;;;;;;14.63;5.20;;;;;;;;;;5029062;28;95523;-78
2021/12/30 18:03:20;;;;;;;18.40;4.65;;;;;;;;;;5029022;28;97052;-76
2021/12/30 18:05:46;;;;;;;14.20;4.40;;;;;;;;;;5032388;27;97214;-76
2021/12/30 18:08:13;;;;;;;23.02;5.15;;;;;;;;;;5045661;27;95321;-76
2021/12/30 18:10:41;;;;;;;18.02;4.28;;;;;;;;;;5028039;28;95327;-78
2021/12/30 18:13:08;;;;;;;9.52;4.13;;;;;;;;;;5031858;27;97812;-77
2021/12/30 18:15:36;;;;;;;18.48;6.60;;;;;;;;;;5032264;27;96903;-78
2021/12/30 18:18:03;;;;;;;19.23;3.83;;;;;;;;;;5039372;27;97730;-75
2021/12/30 18:20:30;;;;;;;9.57;3.38;;;;;;;;;;5027669;28;95486;-77
2021/12/30 18:22:57;;;;;;;11.43;3.67;;;;;;;;;;5029220;28;96880;-78
2021/12/30 18:25:24;;;;;;;11.90;3.70;;;;;;;;;;5027510;27;97401;-75
2021/12/30 18:27:50;;;;;;;16.50;3.90;;;;;;;;;;5028154;28;95843;-76
2021/12/30 18:30:17;;;;;;;14.15;3.85;;;;;;;;;;5031180;27;96778;-76
2021/12/30 18:32:44;;;;;;;13.77;3.75;;;;;;;;;;5044520;27;97264;-79
2021/12/30 18:35:15;;;;;;;12.23;3.17;;;;;;;;;;5013622;28;96869;-77
2021/12/30 18:37:42;;;;;;;14.27;3.30;;;;;;;;;;5029142;28;97116;-79
2021/12/30 18:40:09;;;;;;;11.20;2.92;;;;;;;;;;5028827;28;95606;-78
2021/12/30 18:42:35;;;;;;;22.23;4.45;;;;;;;;;;5027469;28;96788;-75
2021/12/30 18:45:04;;;;;;;21.40;3.88;;;;;;;;;;5012782;27;97308;-76
2021/12/30 18:47:32;;;;;;;15.70;3.80;;;;;;;;;;5026406;27;95470;-75
2021/12/30 18:49:59;;;;;;;21.85;4.05;;;;;;;;;;5028510;28;96755;-79
2021/12/30 18:52:25;;;;;;;15.25;3.50;;;;;;;;;;5028025;28;97497;-75
2021/12/30 18:54:52;;;;;;;20.35;3.70;;;;;;;;;;5010735;27;95282;-75
2021/12/30 18:57:41;;;;;;;15.68;3.20;;;;;;;;;;5042572;27;99042;-77
2021/12/30 19:00:10;;;;;;;17.60;3.35;;;;;;;;;;5027760;28;95567;-76
2021/12/30 19:02:36;;;;;;;12.73;2.78;;;;;;;;;;5027274;27;96736;-76
2021/12/30 19:05:03;;;;;;;12.68;2.75;;;;;;;;;;5010139;28;97640;-78
2021/12/30 19:07:30;;;;;;;15.63;3.67;;;;;;;;;;5027800;27;95386;-76
2021/12/30 19:09:57;;;;;;;12.98;3.00;;;;;;;;;;5027980;28;96812;-77
2021/12/30 19:12:24;;;;;;;16.90;3.60;;;;;;;;;;5027322;27;97548;-76
2021/12/30 19:14:50;;;;;;;16.48;3.33;;;;;;;;;;5031233;27;95837;-78
2021/12/30 19:17:16;;;;;;;21.55;4.07;;;;;;;;;;5026243;28;96778;-79
2021/12/30 19:19:42;;;;;;;21.20;4.28;;;;;;;;;;5031665;28;96150;-75
2021/12/30 19:22:11;;;;;;;18.38;3.92;;;;;;;;;;5028087;28;97169;-77
2021/12/30 19:24:40;;;;;;;22.05;3.83;;;;;;;;;;5027641;28;97628;-75
2021/12/30 19:27:07;;;;;;;21.73;4.30;;;;;;;;;;5027820;28;95820;-77
2021/12/30 19:29:33;;;;;;;18.08;4.43;;;;;;;;;;5036221;27;96724;-78
2021/12/30 19:32:00;;;;;;;19.35;3.95;;;;;;;;;;5048119;27;97590;-79
2021/12/30 19:34:27;;;;;;;18.33;3.88;;;;;;;;;;5048098;27;95618;-80
2021/12/30 19:36:53;;;;;;;21.10;4.22;;;;;;;;;;5048598;27;96413;-78
2021/12/30 19:39:21;;;;;;;24.25;4.97;;;;;;;;;;5034527;27;97275;-76
2021/12/30 19:41:48;;;;;;;21.25;4.70;;;;;;;;;;5024049;27;95649;-75
2021/12/30 19:44:14;;;;;;;21.55;5.30;;;;;;;;;;5018404;27;97355;-77
2021/12/30 19:46:42;;;;;;;25.05;5.55;;;;;;;;;;5024486;27;95497;-76
2021/12/30 19:49:10;;;;;;;17.33;5.03;;;;;;;;;;5009448;28;97029;-77
2021/12/30 19:51:40;;;;;;;21.85;5.35;;;;;;;;;;5027097;28;96378;-80
2021/12/30 19:54:10;;;;;;;26.05;5.85;;;;;;;;;;5011107;27;95966;-76
2021/12/30 19:56:37;;;;;;;18.98;6.05;;;;;;;;;;5033306;27;96983;-78
2021/12/30 19:59:04;;;;;;;17.42;4.95;;;;;;;;;;5027549;27;97367;-78
2021/12/30 20:01:30;;;;;;;18.05;5.53;;;;;;;;;;5009456;28;96782;-78
2021/12/30 20:03:59;;;;;;;16.25;5.35;;;;;;;;;;5030014;27;97273;-80
2021/12/30 20:06:26;;;;;;;21.67;5.35;;;;;;;;;;5034388;27;95498;-81
2021/12/30 20:08:53;;;;;;;23.25;5.32;;;;;;;;;;5009011;28;96824;-79
2021/12/30 20:11:19;;;;;;;18.20;4.75;;;;;;;;;;5026563;28;97476;-80
2021/12/30 20:13:46;;;;;;;18.58;4.95;;;;;;;;;;5026746;27;95884;-76
2021/12/30 20:16:13;;;;;;;16.95;4.57;;;;;;;;;;5026886;27;96812;-77
2021/12/30 20:18:41;;;;;;;17.42;4.20;;;;;;;;;;5022210;28;97262;-78
2021/12/30 20:21:10;;;;;;;18.33;4.40;;;;;;;;;;5026448;28;96452;-79
2021/12/30 20:23:37;;;;;;;18.25;3.97;;;;;;;;;;5029688;28;96361;-77
2021/12/30 20:26:03;;;;;;;14.90;3.83;;;;;;;;;;5026538;28;95742;-80
2021/12/30 20:28:30;;;;;;;20.23;3.85;;;;;;;;;;5026970;28;96826;-77
2021/12/30 20:30:56;;;;;;;19.67;4.13;;;;;;;;;;5041290;27;97312;-79
2021/12/30 20:33:25;;;;;;;18.90;4.32;;;;;;;;;;5035761;27;95360;-79
2021/12/30 20:35:52;;;;;;;18.35;3.95;;;;;;;;;;5030160;28;96733;-78
2021/12/30 20:38:19;;;;;;;16.67;3.80;;;;;;;;;;5030052;27;97361;-79
2021/12/30 20:40:49;;;;;;;17.38;3.83;;;;;;;;;;5030411;27;95790;-79
2021/12/30 20:43:19;;;;;;;16.38;3.60;;;;;;;;;;5028505;28;96832;-78
2021/12/30 20:45:48;;;;;;;19.63;4.82;;;;;;;;;;5031271;27;97558;-76
2021/12/30 20:48:18;;;;;;;12.77;3.80;;;;;;;;;;5029685;28;98739;-78
2021/12/30 20:50:46;;;;;;;14.23;3.95;;;;;;;;;;5029885;28;96605;-78
2021/12/30 20:53:12;;;;;;;21.80;10.90;;;;;;;;;;5026759;27;95193;-74
2021/12/30 20:55:39;;;;;;;14.75;5.07;;;;;;;;;;5022041;27;96859;-78
2021/12/30 20:58:07;;;;;;;11.52;3.67;;;;;;;;;;5029204;27;97304;-79
2021/12/30 21:00:34;;;;;;;16.67;3.28;;;;;;;;;;5031947;27;95506;-75
2021/12/30 21:03:00;;;;;;;11.57;3.20;;;;;;;;;;5029261;28;99451;-79
2021/12/30 21:05:31;;;;;;;13.63;3.80;;;;;;;;;;5029465;28;97254;-79
2021/12/30 21:08:01;;;;;;;13.15;2.97;;;;;;;;;;5033741;28;95201;-77
2021/12/30 21:10:28;;;;;;;10.95;3.08;;;;;;;;;;5028921;28;97585;-78
2021/12/30 21:12:54;;;;;;;10.45;3.15;;;;;;;;;;5029299;28;95754;-78
2021/12/30 21:15:20;;;;;;;13.48;4.45;;;;;;;;;;5031602;27;96975;-78
2021/12/30 21:17:48;;;;;;;11.15;3.20;;;;;;;;;;5014845;27;97822;-78
2021/12/30 21:20:16;;;;;;;13.23;2.97;;;;;;;;;;5029326;28;95675;-80
2021/12/30 21:22:43;;;;;;;14.70;3.10;;;;;;;;;;5041813;27;96840;-80
2021/12/30 21:25:11;;;;;;;11.82;3.03;;;;;;;;;;5049483;27;97857;-78
2021/12/30 21:27:37;;;;;;;12.88;3.17;;;;;;;;;;5038264;27;95156;-79
2021/12/30 21:30:07;;;;;;;17.48;3.00;;;;;;;;;;5031229;27;96831;-77
2021/12/30 21:32:34;;;;;;;13.38;3.10;;;;;;;;;;5031586;27;96091;-76
2021/12/30 21:35:01;;;;;;;12.20;2.97;;;;;;;;;;5032329;27;95842;-79
2021/12/30 21:37:28;;;;;;;12.45;3.15;;;;;;;;;;5029828;28;97278;-77
2021/12/30 21:39:54;;;;;;;13.63;3.40;;;;;;;;;;5030550;27;96172;-75
2021/12/30 21:42:20;;;;;;;12.57;3.28;;;;;;;;;;5029245;27;95742;-77
2021/12/30 21:44:47;;;;;;;14.95;3.85;;;;;;;;;;5033587;27;97348;-80
2021/12/30 21:47:14;;;;;;;10.93;3.40;;;;;;;;;;5050909;27;95853;-77
2021/12/30 21:49:40;;;;;;;13.45;3.55;;;;;;;;;;5031177;27;96428;-76
2021/12/30 21:52:06;;;;;;;12.70;3.30;;;;;;;;;;5032862;28;97784;-76
2021/12/30 21:54:33;;;;;;;10.52;3.97;;;;;;;;;;5030633;28;97170;-75
2021/12/30 21:57:01;;;;;;;8.73;3.90;;;;;;;;;;5030360;28;97065;-74
2021/12/30 21:59:27;;;;;;;15.13;4.05;;;;;;;;;;5030754;27;95455;-77
2021/12/30 22:01:54;;;;;;;20.13;3.85;;;;;;;;;;5037224;27;96750;-77